sensor_id;sensor_type;location;lat;lon;timestamp;temperature;humidity
83500;DHT22;73433;50.908;13.746;2023-11-19T00:00:09;3.30;88.30
83500;DHT22;73433;50.908;13.746;2023-11-19T00:02:40;3.20;88.40
83500;DHT22;73433;50.908;13.746;2023-11-19T00:05:09;3.20;88.70
83500;DHT22;73433;50.908;13.746;2023-11-19T00:07:39;3.20;88.70
83500;DHT22;73433;50.908;13.746;2023-11-19T00:10:16;3.20;88.70
83500;DHT22;73433;50.908;13.746;2023-11-19T00:12:48;3.20;88.70
83500;DHT22;73433;50.908;13.746;2023-11-19T00:15:17;3.20;88.90
83500;DHT22;73433;50.908;13.746;2023-11-19T00:17:47;3.20;88.90
83500;DHT22;73433;50.908;13.746;2023-11-19T00:20:18;3.20;88.90
83500;DHT22;73433;50.908;13.746;2023-11-19T00:22:45;3.20;88.90
83500;DHT22;73433;50.908;13.746;2023-11-19T00:25:19;3.20;88.70
83500;DHT22;73433;50.908;13.746;2023-11-19T00:27:47;3.20;88.60
83500;DHT22;73433;50.908;13.746;2023-11-19T00:30:14;3.30;88.70
83500;DHT22;73433;50.908;13.746;2023-11-19T00:32:42;3.20;88.60
83500;DHT22;73433;50.908;13.746;2023-11-19T00:35:09;3.30;88.70
83500;DHT22;73433;50.908;13.746;2023-11-19T00:37:43;3.30;88.60
83500;DHT22;73433;50.908;13.746;2023-11-19T00:40:13;3.30;88.60
83500;DHT22;73433;50.908;13.746;2023-11-19T00:42:43;3.40;88.70
83500;DHT22;73433;50.908;13.746;2023-11-19T00:45:10;3.40;88.60
83500;DHT22;73433;50.908;13.746;2023-11-19T00:47:40;3.50;88.70
83500;DHT22;73433;50.908;13.746;2023-11-19T00:50:07;3.50;88.40
83500;DHT22;73433;50.908;13.746;2023-11-19T00:52:37;3.60;88.70
83500;DHT22;73433;50.908;13.746;2023-11-19T00:55:05;3.60;88.30
83500;DHT22;73433;50.908;13.746;2023-11-19T00:57:34;3.60;87.90
83500;DHT22;73433;50.908;13.746;2023-11-19T01:00:04;3.70;88.00
83500;DHT22;73433;50.908;13.746;2023-11-19T01:02:48;3.70;88.00
83500;DHT22;73433;50.908;13.746;2023-11-19T01:05:19;3.80;88.00
83500;DHT22;73433;50.908;13.746;2023-11-19T01:07:50;3.80;87.80
83500;DHT22;73433;50.908;13.746;2023-11-19T01:10:19;3.80;87.40
83500;DHT22;73433;50.908;13.746;2023-11-19T01:12:47;3.90;87.80
83500;DHT22;73433;50.908;13.746;2023-11-19T01:15:14;3.90;87.80
83500;DHT22;73433;50.908;13.746;2023-11-19T01:17:41;3.90;88.10
83500;DHT22;73433;50.908;13.746;2023-11-19T01:20:13;3.90;88.30
83500;DHT22;73433;50.908;13.746;2023-11-19T01:22:40;3.90;88.40
83500;DHT22;73433;50.908;13.746;2023-11-19T01:25:08;3.90;88.50
83500;DHT22;73433;50.908;13.746;2023-11-19T01:27:35;3.80;88.40
83500;DHT22;73433;50.908;13.746;2023-11-19T01:30:03;3.80;88.40
83500;DHT22;73433;50.908;13.746;2023-11-19T01:32:30;3.90;88.50
83500;DHT22;73433;50.908;13.746;2023-11-19T01:34:57;3.90;88.40
83500;DHT22;73433;50.908;13.746;2023-11-19T01:37:25;4.00;88.10
83500;DHT22;73433;50.908;13.746;2023-11-19T01:39:52;4.10;87.70
83500;DHT22;73433;50.908;13.746;2023-11-19T01:42:22;4.20;87.30
83500;DHT22;73433;50.908;13.746;2023-11-19T01:44:58;4.30;87.00
83500;DHT22;73433;50.908;13.746;2023-11-19T01:47:27;4.30;86.40
83500;DHT22;73433;50.908;13.746;2023-11-19T01:49:56;4.40;85.80
83500;DHT22;73433;50.908;13.746;2023-11-19T01:52:24;4.50;85.60
83500;DHT22;73433;50.908;13.746;2023-11-19T01:54:53;4.50;85.30
83500;DHT22;73433;50.908;13.746;2023-11-19T01:57:22;4.50;85.00
83500;DHT22;73433;50.908;13.746;2023-11-19T01:59:51;4.60;84.80
83500;DHT22;73433;50.908;13.746;2023-11-19T02:02:19;4.50;84.80
83500;DHT22;73433;50.908;13.746;2023-11-19T02:04:50;4.50;84.80
83500;DHT22;73433;50.908;13.746;2023-11-19T02:07:18;4.50;84.90
83500;DHT22;73433;50.908;13.746;2023-11-19T02:09:46;4.50;85.10
83500;DHT22;73433;50.908;13.746;2023-11-19T02:12:13;4.50;85.40
83500;DHT22;73433;50.908;13.746;2023-11-19T02:14:41;4.40;85.50
83500;DHT22;73433;50.908;13.746;2023-11-19T02:17:33;4.40;85.80
83500;DHT22;73433;50.908;13.746;2023-11-19T02:20:05;4.30;86.10
83500;DHT22;73433;50.908;13.746;2023-11-19T02:22:39;4.30;86.20
83500;DHT22;73433;50.908;13.746;2023-11-19T02:25:25;4.30;86.30
83500;DHT22;73433;50.908;13.746;2023-11-19T02:27:59;4.30;86.40
83500;DHT22;73433;50.908;13.746;2023-11-19T02:30:28;4.30;86.50
83500;DHT22;73433;50.908;13.746;2023-11-19T02:32:56;4.30;86.50
83500;DHT22;73433;50.908;13.746;2023-11-19T02:35:30;4.20;86.40
83500;DHT22;73433;50.908;13.746;2023-11-19T02:37:59;4.20;86.40
83500;DHT22;73433;50.908;13.746;2023-11-19T02:40:27;4.20;86.10
83500;DHT22;73433;50.908;13.746;2023-11-19T02:42:55;4.20;86.10
83500;DHT22;73433;50.908;13.746;2023-11-19T02:45:23;4.20;86.00
83500;DHT22;73433;50.908;13.746;2023-11-19T02:47:52;4.20;86.00
83500;DHT22;73433;50.908;13.746;2023-11-19T02:50:20;4.20;86.00
83500;DHT22;73433;50.908;13.746;2023-11-19T02:52:54;4.20;85.90
83500;DHT22;73433;50.908;13.746;2023-11-19T02:55:24;4.10;86.00
83500;DHT22;73433;50.908;13.746;2023-11-19T02:57:52;4.20;85.80
83500;DHT22;73433;50.908;13.746;2023-11-19T03:00:22;4.10;85.60
83500;DHT22;73433;50.908;13.746;2023-11-19T03:02:59;4.10;85.50
83500;DHT22;73433;50.908;13.746;2023-11-19T03:05:33;4.20;85.60
83500;DHT22;73433;50.908;13.746;2023-11-19T03:08:00;4.10;85.60
83500;DHT22;73433;50.908;13.746;2023-11-19T03:10:27;4.10;85.60
83500;DHT22;73433;50.908;13.746;2023-11-19T03:12:56;4.10;85.70
83500;DHT22;73433;50.908;13.746;2023-11-19T03:15:24;4.10;85.90
83500;DHT22;73433;50.908;13.746;2023-11-19T03:17:51;4.10;86.00
83500;DHT22;73433;50.908;13.746;2023-11-19T03:20:19;4.10;86.90
83500;DHT22;73433;50.908;13.746;2023-11-19T03:22:47;4.10;86.10
83500;DHT22;73433;50.908;13.746;2023-11-19T03:25:14;4.10;86.20
83500;DHT22;73433;50.908;13.746;2023-11-19T03:27:42;4.10;86.30
83500;DHT22;73433;50.908;13.746;2023-11-19T03:30:09;4.20;86.50
83500;DHT22;73433;50.908;13.746;2023-11-19T03:32:37;4.20;86.40
83500;DHT22;73433;50.908;13.746;2023-11-19T03:35:06;4.20;86.40
83500;DHT22;73433;50.908;13.746;2023-11-19T03:37:35;4.20;86.50
83500;DHT22;73433;50.908;13.746;2023-11-19T03:40:04;4.20;86.50
83500;DHT22;73433;50.908;13.746;2023-11-19T03:42:31;4.20;86.50
83500;DHT22;73433;50.908;13.746;2023-11-19T03:44:59;4.20;86.50
83500;DHT22;73433;50.908;13.746;2023-11-19T03:47:26;4.20;86.50
83500;DHT22;73433;50.908;13.746;2023-11-19T03:49:53;4.20;86.50
83500;DHT22;73433;50.908;13.746;2023-11-19T03:52:21;4.20;86.50
83500;DHT22;73433;50.908;13.746;2023-11-19T03:54:48;4.20;86.40
83500;DHT22;73433;50.908;13.746;2023-11-19T03:57:15;4.20;86.30
83500;DHT22;73433;50.908;13.746;2023-11-19T03:59:42;4.20;86.30
83500;DHT22;73433;50.908;13.746;2023-11-19T04:02:10;4.20;86.30
83500;DHT22;73433;50.908;13.746;2023-11-19T04:04:38;4.20;86.40
83500;DHT22;73433;50.908;13.746;2023-11-19T04:07:08;4.20;86.80
83500;DHT22;73433;50.908;13.746;2023-11-19T04:09:36;4.20;86.80
83500;DHT22;73433;50.908;13.746;2023-11-19T04:12:04;4.20;86.80
83500;DHT22;73433;50.908;13.746;2023-11-19T04:14:32;4.20;86.90
83500;DHT22;73433;50.908;13.746;2023-11-19T04:16:59;4.20;87.00
83500;DHT22;73433;50.908;13.746;2023-11-19T04:19:26;4.20;87.00
83500;DHT22;73433;50.908;13.746;2023-11-19T04:21:54;4.10;87.00
83500;DHT22;73433;50.908;13.746;2023-11-19T04:24:22;4.10;87.30
83500;DHT22;73433;50.908;13.746;2023-11-19T04:26:49;4.20;87.30
83500;DHT22;73433;50.908;13.746;2023-11-19T04:29:16;4.20;87.50
83500;DHT22;73433;50.908;13.746;2023-11-19T04:31:44;4.10;87.60
83500;DHT22;73433;50.908;13.746;2023-11-19T04:34:12;4.10;88.10
83500;DHT22;73433;50.908;13.746;2023-11-19T04:36:39;4.20;88.40
83500;DHT22;73433;50.908;13.746;2023-11-19T04:39:06;4.20;88.40
83500;DHT22;73433;50.908;13.746;2023-11-19T04:41:49;4.30;88.70
83500;DHT22;73433;50.908;13.746;2023-11-19T04:44:16;4.30;88.90
83500;DHT22;73433;50.908;13.746;2023-11-19T04:46:44;4.30;88.90
83500;DHT22;73433;50.908;13.746;2023-11-19T04:49:13;4.30;88.90
83500;DHT22;73433;50.908;13.746;2023-11-19T04:51:45;4.30;89.10
83500;DHT22;73433;50.908;13.746;2023-11-19T04:54:16;4.30;89.40
83500;DHT22;73433;50.908;13.746;2023-11-19T04:56:45;4.30;89.60
83500;DHT22;73433;50.908;13.746;2023-11-19T04:59:14;4.40;89.90
83500;DHT22;73433;50.908;13.746;2023-11-19T05:01:46;4.30;90.30
83500;DHT22;73433;50.908;13.746;2023-11-19T05:04:14;4.30;90.60
83500;DHT22;73433;50.908;13.746;2023-11-19T05:06:42;4.30;90.90
83500;DHT22;73433;50.908;13.746;2023-11-19T05:09:09;4.30;91.10
83500;DHT22;73433;50.908;13.746;2023-11-19T05:11:36;4.30;91.30
83500;DHT22;73433;50.908;13.746;2023-11-19T05:14:18;4.30;91.50
83500;DHT22;73433;50.908;13.746;2023-11-19T05:16:49;4.30;91.80
83500;DHT22;73433;50.908;13.746;2023-11-19T05:19:16;4.30;92.00
83500;DHT22;73433;50.908;13.746;2023-11-19T05:21:44;4.30;92.20
83500;DHT22;73433;50.908;13.746;2023-11-19T05:24:12;4.30;92.30
83500;DHT22;73433;50.908;13.746;2023-11-19T05:26:39;4.30;92.50
83500;DHT22;73433;50.908;13.746;2023-11-19T05:29:06;4.30;92.70
83500;DHT22;73433;50.908;13.746;2023-11-19T05:31:33;4.30;92.90
83500;DHT22;73433;50.908;13.746;2023-11-19T05:34:03;4.40;93.40
83500;DHT22;73433;50.908;13.746;2023-11-19T05:36:31;4.40;93.30
83500;DHT22;73433;50.908;13.746;2023-11-19T05:38:58;4.50;93.50
83500;DHT22;73433;50.908;13.746;2023-11-19T05:41:26;4.60;93.90
83500;DHT22;73433;50.908;13.746;2023-11-19T05:43:53;4.70;94.00
83500;DHT22;73433;50.908;13.746;2023-11-19T05:46:20;4.80;93.90
83500;DHT22;73433;50.908;13.746;2023-11-19T05:48:48;4.90;94.10
83500;DHT22;73433;50.908;13.746;2023-11-19T05:51:15;5.00;94.20
83500;DHT22;73433;50.908;13.746;2023-11-19T05:53:43;5.10;94.10
83500;DHT22;73433;50.908;13.746;2023-11-19T05:56:13;5.20;94.70
83500;DHT22;73433;50.908;13.746;2023-11-19T05:58:43;5.40;95.10
83500;DHT22;73433;50.908;13.746;2023-11-19T06:01:12;5.50;95.50
83500;DHT22;73433;50.908;13.746;2023-11-19T06:03:39;5.70;96.20
83500;DHT22;73433;50.908;13.746;2023-11-19T06:06:07;5.90;96.40
83500;DHT22;73433;50.908;13.746;2023-11-19T06:08:34;6.00;96.00
83500;DHT22;73433;50.908;13.746;2023-11-19T06:11:01;6.20;95.30
83500;DHT22;73433;50.908;13.746;2023-11-19T06:13:29;6.30;95.20
83500;DHT22;73433;50.908;13.746;2023-11-19T06:15:58;6.40;95.00
83500;DHT22;73433;50.908;13.746;2023-11-19T06:18:25;6.40;94.40
83500;DHT22;73433;50.908;13.746;2023-11-19T06:20:53;6.40;93.90
83500;DHT22;73433;50.908;13.746;2023-11-19T06:23:20;6.50;93.90
83500;DHT22;73433;50.908;13.746;2023-11-19T06:25:47;6.50;93.60
83500;DHT22;73433;50.908;13.746;2023-11-19T06:28:14;6.50;93.10
83500;DHT22;73433;50.908;13.746;2023-11-19T06:30:42;6.50;93.60
83500;DHT22;73433;50.908;13.746;2023-11-19T06:33:13;6.50;93.90
83500;DHT22;73433;50.908;13.746;2023-11-19T06:35:41;6.60;94.20
83500;DHT22;73433;50.908;13.746;2023-11-19T06:38:08;6.70;93.80
83500;DHT22;73433;50.908;13.746;2023-11-19T06:40:35;6.70;94.00
83500;DHT22;73433;50.908;13.746;2023-11-19T06:43:03;6.70;94.50
83500;DHT22;73433;50.908;13.746;2023-11-19T06:45:31;6.80;93.90
83500;DHT22;73433;50.908;13.746;2023-11-19T06:48:01;6.80;93.90
83500;DHT22;73433;50.908;13.746;2023-11-19T06:50:31;6.90;95.00
83500;DHT22;73433;50.908;13.746;2023-11-19T06:52:58;6.90;94.70
83500;DHT22;73433;50.908;13.746;2023-11-19T06:55:26;7.00;93.90
83500;DHT22;73433;50.908;13.746;2023-11-19T06:57:54;7.10;93.40
83500;DHT22;73433;50.908;13.746;2023-11-19T07:00:21;7.10;93.60
83500;DHT22;73433;50.908;13.746;2023-11-19T07:02:49;7.10;93.30
83500;DHT22;73433;50.908;13.746;2023-11-19T07:05:17;7.10;93.30
83500;DHT22;73433;50.908;13.746;2023-11-19T07:07:45;7.10;93.80
83500;DHT22;73433;50.908;13.746;2023-11-19T07:10:13;7.20;93.80
83500;DHT22;73433;50.908;13.746;2023-11-19T07:12:41;7.20;93.30
83500;DHT22;73433;50.908;13.746;2023-11-19T07:15:09;7.10;93.30
83500;DHT22;73433;50.908;13.746;2023-11-19T07:17:36;7.10;93.60
83500;DHT22;73433;50.908;13.746;2023-11-19T07:20:04;7.20;93.50
83500;DHT22;73433;50.908;13.746;2023-11-19T07:22:31;7.20;93.80
83500;DHT22;73433;50.908;13.746;2023-11-19T07:24:59;7.20;93.50
83500;DHT22;73433;50.908;13.746;2023-11-19T07:27:26;7.10;93.20
83500;DHT22;73433;50.908;13.746;2023-11-19T07:29:54;7.10;93.90
83500;DHT22;73433;50.908;13.746;2023-11-19T07:32:21;7.20;94.60
83500;DHT22;73433;50.908;13.746;2023-11-19T07:34:49;7.20;94.80
83500;DHT22;73433;50.908;13.746;2023-11-19T07:37:16;7.30;95.60
83500;DHT22;73433;50.908;13.746;2023-11-19T07:39:44;7.50;95.70
83500;DHT22;73433;50.908;13.746;2023-11-19T07:42:11;7.60;95.30
83500;DHT22;73433;50.908;13.746;2023-11-19T07:44:38;7.60;94.90
83500;DHT22;73433;50.908;13.746;2023-11-19T07:47:05;7.70;94.60
83500;DHT22;73433;50.908;13.746;2023-11-19T07:49:33;7.70;94.20
83500;DHT22;73433;50.908;13.746;2023-11-19T07:52:00;7.60;94.10
83500;DHT22;73433;50.908;13.746;2023-11-19T07:54:28;7.70;94.40
83500;DHT22;73433;50.908;13.746;2023-11-19T07:56:55;7.70;94.50
83500;DHT22;73433;50.908;13.746;2023-11-19T07:59:23;7.70;94.70
83500;DHT22;73433;50.908;13.746;2023-11-19T08:01:50;7.80;95.00
83500;DHT22;73433;50.908;13.746;2023-11-19T08:04:17;7.90;95.00
83500;DHT22;73433;50.908;13.746;2023-11-19T08:06:45;7.90;95.20
83500;DHT22;73433;50.908;13.746;2023-11-19T08:09:12;8.00;95.10
83500;DHT22;73433;50.908;13.746;2023-11-19T08:11:41;8.10;94.70
83500;DHT22;73433;50.908;13.746;2023-11-19T08:14:09;8.10;94.60
83500;DHT22;73433;50.908;13.746;2023-11-19T08:16:38;8.10;94.90
83500;DHT22;73433;50.908;13.746;2023-11-19T08:19:05;8.10;94.90
83500;DHT22;73433;50.908;13.746;2023-11-19T08:21:32;8.20;94.60
83500;DHT22;73433;50.908;13.746;2023-11-19T08:24:00;8.20;95.70
83500;DHT22;73433;50.908;13.746;2023-11-19T08:26:27;8.30;94.40
83500;DHT22;73433;50.908;13.746;2023-11-19T08:28:54;8.30;94.60
83500;DHT22;73433;50.908;13.746;2023-11-19T08:31:21;8.40;94.90
83500;DHT22;73433;50.908;13.746;2023-11-19T08:33:49;8.40;94.00
83500;DHT22;73433;50.908;13.746;2023-11-19T08:36:16;8.50;94.20
83500;DHT22;73433;50.908;13.746;2023-11-19T08:38:46;8.50;93.80
83500;DHT22;73433;50.908;13.746;2023-11-19T08:41:16;8.50;93.60
83500;DHT22;73433;50.908;13.746;2023-11-19T08:43:45;8.60;93.90
83500;DHT22;73433;50.908;13.746;2023-11-19T08:46:13;8.60;93.60
83500;DHT22;73433;50.908;13.746;2023-11-19T08:48:40;8.60;93.40
83500;DHT22;73433;50.908;13.746;2023-11-19T08:51:08;8.70;93.70
83500;DHT22;73433;50.908;13.746;2023-11-19T08:53:35;8.80;93.50
83500;DHT22;73433;50.908;13.746;2023-11-19T08:56:02;8.90;93.30
83500;DHT22;73433;50.908;13.746;2023-11-19T08:58:30;9.00;93.20
83500;DHT22;73433;50.908;13.746;2023-11-19T09:00:58;9.00;93.00
83500;DHT22;73433;50.908;13.746;2023-11-19T09:03:25;8.90;93.30
83500;DHT22;73433;50.908;13.746;2023-11-19T09:05:57;9.00;93.50
83500;DHT22;73433;50.908;13.746;2023-11-19T09:08:25;9.00;93.30
83500;DHT22;73433;50.908;13.746;2023-11-19T09:10:52;9.10;94.00
83500;DHT22;73433;50.908;13.746;2023-11-19T09:13:19;9.20;94.10
83500;DHT22;73433;50.908;13.746;2023-11-19T09:15:47;9.30;93.70
83500;DHT22;73433;50.908;13.746;2023-11-19T09:18:14;9.40;93.00
83500;DHT22;73433;50.908;13.746;2023-11-19T09:20:41;9.40;92.80
83500;DHT22;73433;50.908;13.746;2023-11-19T09:23:09;9.30;92.40
83500;DHT22;73433;50.908;13.746;2023-11-19T09:25:36;9.30;92.60
83500;DHT22;73433;50.908;13.746;2023-11-19T09:28:06;9.30;92.30
83500;DHT22;73433;50.908;13.746;2023-11-19T09:30:36;9.30;92.40
83500;DHT22;73433;50.908;13.746;2023-11-19T09:33:03;9.30;92.20
83500;DHT22;73433;50.908;13.746;2023-11-19T09:35:30;9.30;91.70
83500;DHT22;73433;50.908;13.746;2023-11-19T09:37:58;9.30;92.30
83500;DHT22;73433;50.908;13.746;2023-11-19T09:40:28;9.30;92.40
83500;DHT22;73433;50.908;13.746;2023-11-19T09:42:56;9.40;91.90
83500;DHT22;73433;50.908;13.746;2023-11-19T09:45:27;9.50;92.10
83500;DHT22;73433;50.908;13.746;2023-11-19T09:47:55;9.60;91.60
83500;DHT22;73433;50.908;13.746;2023-11-19T09:50:24;9.60;91.10
83500;DHT22;73433;50.908;13.746;2023-11-19T09:52:52;9.70;91.50
83500;DHT22;73433;50.908;13.746;2023-11-19T09:55:19;9.70;91.60
83500;DHT22;73433;50.908;13.746;2023-11-19T09:57:48;9.80;90.30
83500;DHT22;73433;50.908;13.746;2023-11-19T10:00:19;9.70;89.50
83500;DHT22;73433;50.908;13.746;2023-11-19T10:02:48;9.60;89.90
83500;DHT22;73433;50.908;13.746;2023-11-19T10:05:17;9.60;90.40
83500;DHT22;73433;50.908;13.746;2023-11-19T10:07:47;9.60;90.30
83500;DHT22;73433;50.908;13.746;2023-11-19T10:10:16;9.60;90.40
83500;DHT22;73433;50.908;13.746;2023-11-19T10:12:46;9.70;90.70
83500;DHT22;73433;50.908;13.746;2023-11-19T10:15:26;9.70;90.10
83500;DHT22;73433;50.908;13.746;2023-11-19T10:17:57;9.70;89.70
83500;DHT22;73433;50.908;13.746;2023-11-19T10:20:25;9.70;89.50
83500;DHT22;73433;50.908;13.746;2023-11-19T10:22:53;9.70;89.90
83500;DHT22;73433;50.908;13.746;2023-11-19T10:25:26;9.80;89.40
83500;DHT22;73433;50.908;13.746;2023-11-19T10:27:55;9.80;89.00
83500;DHT22;73433;50.908;13.746;2023-11-19T10:30:23;9.70;88.40
83500;DHT22;73433;50.908;13.746;2023-11-19T10:33:06;9.70;88.50
83500;DHT22;73433;50.908;13.746;2023-11-19T10:35:36;9.70;88.70
83500;DHT22;73433;50.908;13.746;2023-11-19T10:38:16;9.70;89.10
83500;DHT22;73433;50.908;13.746;2023-11-19T10:40:43;9.70;89.00
83500;DHT22;73433;50.908;13.746;2023-11-19T10:43:11;9.80;89.20
83500;DHT22;73433;50.908;13.746;2023-11-19T10:45:40;9.80;88.90
83500;DHT22;73433;50.908;13.746;2023-11-19T10:48:07;9.90;89.70
83500;DHT22;73433;50.908;13.746;2023-11-19T10:50:39;10.10;90.30
83500;DHT22;73433;50.908;13.746;2023-11-19T10:53:09;10.30;88.60
83500;DHT22;73433;50.908;13.746;2023-11-19T10:55:37;10.30;87.70
83500;DHT22;73433;50.908;13.746;2023-11-19T10:58:08;10.30;87.30
83500;DHT22;73433;50.908;13.746;2023-11-19T11:00:44;10.30;88.10
83500;DHT22;73433;50.908;13.746;2023-11-19T11:03:21;10.30;88.60
83500;DHT22;73433;50.908;13.746;2023-11-19T11:05:50;10.30;88.00
83500;DHT22;73433;50.908;13.746;2023-11-19T11:08:19;10.30;88.40
83500;DHT22;73433;50.908;13.746;2023-11-19T11:10:55;10.40;87.40
83500;DHT22;73433;50.908;13.746;2023-11-19T11:13:25;10.30;87.50
83500;DHT22;73433;50.908;13.746;2023-11-19T11:15:56;10.30;87.50
83500;DHT22;73433;50.908;13.746;2023-11-19T11:18:27;10.30;87.80
83500;DHT22;73433;50.908;13.746;2023-11-19T11:21:02;10.30;88.00
83500;DHT22;73433;50.908;13.746;2023-11-19T11:29:02;10.30;87.40
83500;DHT22;73433;50.908;13.746;2023-11-19T11:31:48;10.30;87.70
83500;DHT22;73433;50.908;13.746;2023-11-19T11:39:37;10.40;86.40
83500;DHT22;73433;50.908;13.746;2023-11-19T11:45:02;10.50;85.60
83500;DHT22;73433;50.908;13.746;2023-11-19T11:50:18;10.50;84.70
83500;DHT22;73433;50.908;13.746;2023-11-19T11:55:53;10.50;84.70
83500;DHT22;73433;50.908;13.746;2023-11-19T11:58:26;10.60;84.60
83500;DHT22;73433;50.908;13.746;2023-11-19T12:00:54;10.60;84.50
83500;DHT22;73433;50.908;13.746;2023-11-19T12:03:22;10.70;84.50
83500;DHT22;73433;50.908;13.746;2023-11-19T12:05:49;11.10;85.10
83500;DHT22;73433;50.908;13.746;2023-11-19T12:08:25;11.40;82.80
83500;DHT22;73433;50.908;13.746;2023-11-19T12:10:54;11.40;81.40
83500;DHT22;73433;50.908;13.746;2023-11-19T12:16:16;12.10;82.90
83500;DHT22;73433;50.908;13.746;2023-11-19T12:18:43;12.90;80.90
83500;DHT22;73433;50.908;13.746;2023-11-19T12:21:10;13.60;77.60
83500;DHT22;73433;50.908;13.746;2023-11-19T12:23:45;14.10;73.40
83500;DHT22;73433;50.908;13.746;2023-11-19T12:26:33;14.50;72.30
83500;DHT22;73433;50.908;13.746;2023-11-19T12:29:02;15.00;70.60
83500;DHT22;73433;50.908;13.746;2023-11-19T12:31:35;15.40;70.10
83500;DHT22;73433;50.908;13.746;2023-11-19T12:34:06;15.90;67.50
83500;DHT22;73433;50.908;13.746;2023-11-19T12:36:35;16.20;65.30
83500;DHT22;73433;50.908;13.746;2023-11-19T12:39:03;16.30;64.00
83500;DHT22;73433;50.908;13.746;2023-11-19T12:41:30;16.50;63.40
83500;DHT22;73433;50.908;13.746;2023-11-19T12:44:10;16.60;61.40
83500;DHT22;73433;50.908;13.746;2023-11-19T12:46:39;16.50;60.70
83500;DHT22;73433;50.908;13.746;2023-11-19T12:49:06;16.50;60.80
83500;DHT22;73433;50.908;13.746;2023-11-19T12:51:34;16.60;60.80
83500;DHT22;73433;50.908;13.746;2023-11-19T12:54:01;16.60;59.90
83500;DHT22;73433;50.908;13.746;2023-11-19T12:56:28;16.50;58.90
83500;DHT22;73433;50.908;13.746;2023-11-19T12:58:56;16.50;59.40
83500;DHT22;73433;50.908;13.746;2023-11-19T13:01:24;16.40;58.90
83500;DHT22;73433;50.908;13.746;2023-11-19T13:03:51;16.30;59.10
83500;DHT22;73433;50.908;13.746;2023-11-19T13:06:19;16.20;58.70
83500;DHT22;73433;50.908;13.746;2023-11-19T13:08:49;16.10;59.20
83500;DHT22;73433;50.908;13.746;2023-11-19T13:11:32;16.10;58.90
83500;DHT22;73433;50.908;13.746;2023-11-19T13:14:03;16.00;58.90
83500;DHT22;73433;50.908;13.746;2023-11-19T13:16:32;16.00;59.50
83500;DHT22;73433;50.908;13.746;2023-11-19T13:19:00;16.00;59.60
83500;DHT22;73433;50.908;13.746;2023-11-19T13:21:28;16.00;59.10
83500;DHT22;73433;50.908;13.746;2023-11-19T13:23:56;15.90;58.20
83500;DHT22;73433;50.908;13.746;2023-11-19T13:26:24;15.30;57.90
83500;DHT22;73433;50.908;13.746;2023-11-19T13:28:51;14.60;58.90
83500;DHT22;73433;50.908;13.746;2023-11-19T13:31:18;14.10;60.70
83500;DHT22;73433;50.908;13.746;2023-11-19T13:33:46;13.60;62.10
83500;DHT22;73433;50.908;13.746;2023-11-19T13:36:13;13.20;64.00
83500;DHT22;73433;50.908;13.746;2023-11-19T13:38:43;13.00;64.80
83500;DHT22;73433;50.908;13.746;2023-11-19T13:41:14;12.80;65.90
83500;DHT22;73433;50.908;13.746;2023-11-19T13:43:41;12.70;66.40
83500;DHT22;73433;50.908;13.746;2023-11-19T13:46:09;12.60;67.80
83500;DHT22;73433;50.908;13.746;2023-11-19T13:48:39;12.40;67.30
83500;DHT22;73433;50.908;13.746;2023-11-19T13:51:06;12.20;68.00
83500;DHT22;73433;50.908;13.746;2023-11-19T13:53:34;12.00;68.60
83500;DHT22;73433;50.908;13.746;2023-11-19T13:56:05;11.80;69.70
83500;DHT22;73433;50.908;13.746;2023-11-19T13:58:33;11.90;70.60
83500;DHT22;73433;50.908;13.746;2023-11-19T14:01:00;12.00;70.40
83500;DHT22;73433;50.908;13.746;2023-11-19T14:03:28;12.10;70.40
83500;DHT22;73433;50.908;13.746;2023-11-19T14:05:56;12.10;69.70
83500;DHT22;73433;50.908;13.746;2023-11-19T14:08:25;11.90;69.70
83500;DHT22;73433;50.908;13.746;2023-11-19T14:10:53;11.90;70.00
83500;DHT22;73433;50.908;13.746;2023-11-19T14:13:23;11.80;69.80
83500;DHT22;73433;50.908;13.746;2023-11-19T14:15:51;11.60;70.00
83500;DHT22;73433;50.908;13.746;2023-11-19T14:18:19;11.50;70.40
83500;DHT22;73433;50.908;13.746;2023-11-19T14:20:46;11.50;70.80
83500;DHT22;73433;50.908;13.746;2023-11-19T14:23:13;11.30;71.10
83500;DHT22;73433;50.908;13.746;2023-11-19T14:25:41;11.20;71.60
83500;DHT22;73433;50.908;13.746;2023-11-19T14:28:08;11.10;72.20
83500;DHT22;73433;50.908;13.746;2023-11-19T14:30:35;11.00;72.50
83500;DHT22;73433;50.908;13.746;2023-11-19T14:33:03;10.90;73.00
83500;DHT22;73433;50.908;13.746;2023-11-19T14:35:31;10.80;73.70
83500;DHT22;73433;50.908;13.746;2023-11-19T14:38:00;10.70;74.20
83500;DHT22;73433;50.908;13.746;2023-11-19T14:40:27;10.60;74.70
83500;DHT22;73433;50.908;13.746;2023-11-19T14:42:57;10.50;75.40
83500;DHT22;73433;50.908;13.746;2023-11-19T14:45:24;10.50;75.80
83500;DHT22;73433;50.908;13.746;2023-11-19T14:47:55;10.40;75.90
83500;DHT22;73433;50.908;13.746;2023-11-19T14:50:22;10.30;76.50
83500;DHT22;73433;50.908;13.746;2023-11-19T14:52:50;10.20;76.60
83500;DHT22;73433;50.908;13.746;2023-11-19T14:55:18;10.20;77.20
83500;DHT22;73433;50.908;13.746;2023-11-19T14:57:45;10.10;77.50
83500;DHT22;73433;50.908;13.746;2023-11-19T15:00:27;10.10;77.80
83500;DHT22;73433;50.908;13.746;2023-11-19T15:02:55;10.00;77.90
83500;DHT22;73433;50.908;13.746;2023-11-19T15:05:23;10.00;78.00
83500;DHT22;73433;50.908;13.746;2023-11-19T15:07:50;9.90;78.00
83500;DHT22;73433;50.908;13.746;2023-11-19T15:10:17;9.90;78.10
83500;DHT22;73433;50.908;13.746;2023-11-19T15:12:44;9.80;78.10
83500;DHT22;73433;50.908;13.746;2023-11-19T15:15:12;9.70;78.40
83500;DHT22;73433;50.908;13.746;2023-11-19T15:17:41;9.60;78.60
83500;DHT22;73433;50.908;13.746;2023-11-19T15:20:08;9.50;78.90
83500;DHT22;73433;50.908;13.746;2023-11-19T15:22:36;9.50;79.20
83500;DHT22;73433;50.908;13.746;2023-11-19T15:25:03;9.40;79.40
83500;DHT22;73433;50.908;13.746;2023-11-19T15:27:33;9.40;79.70
83500;DHT22;73433;50.908;13.746;2023-11-19T15:30:01;9.30;79.70
83500;DHT22;73433;50.908;13.746;2023-11-19T15:32:28;9.20;79.80
83500;DHT22;73433;50.908;13.746;2023-11-19T15:34:58;9.20;80.00
83500;DHT22;73433;50.908;13.746;2023-11-19T15:37:26;9.20;80.10
83500;DHT22;73433;50.908;13.746;2023-11-19T15:39:53;9.10;80.30
83500;DHT22;73433;50.908;13.746;2023-11-19T15:42:20;9.10;80.60
83500;DHT22;73433;50.908;13.746;2023-11-19T15:44:48;9.10;80.70
83500;DHT22;73433;50.908;13.746;2023-11-19T15:47:15;9.10;80.90
83500;DHT22;73433;50.908;13.746;2023-11-19T15:49:42;9.10;80.90
83500;DHT22;73433;50.908;13.746;2023-11-19T15:52:09;9.00;81.00
83500;DHT22;73433;50.908;13.746;2023-11-19T15:54:36;9.00;81.10
83500;DHT22;73433;50.908;13.746;2023-11-19T15:57:04;9.00;81.20
83500;DHT22;73433;50.908;13.746;2023-11-19T15:59:31;9.00;81.20